sensor_id;sensor_type;location;lat;lon;timestamp;P1;durP1;ratioP1;P2;durP2;ratioP2
5819;SDS011;2936;47.348;9.640;2022-07-25T00:02:07;17.27;;;15.33;;
5819;SDS011;2936;47.348;9.640;2022-07-25T00:04:35;16.23;;;14.73;;
5819;SDS011;2936;47.348;9.640;2022-07-25T00:07:03;15.70;;;14.20;;
5819;SDS011;2936;47.348;9.640;2022-07-25T00:09:30;18.07;;;15.40;;
5819;SDS011;2936;47.348;9.640;2022-07-25T00:11:58;16.03;;;14.43;;
5819;SDS011;2936;47.348;9.640;2022-07-25T00:14:25;17.33;;;15.60;;
5819;SDS011;2936;47.348;9.640;2022-07-25T00:16:53;20.70;;;14.60;;
5819;SDS011;2936;47.348;9.640;2022-07-25T00:19:20;16.37;;;14.60;;
5819;SDS011;2936;47.348;9.640;2022-07-25T00:21:49;17.27;;;15.47;;
5819;SDS011;2936;47.348;9.640;2022-07-25T00:24:16;16.13;;;14.40;;
5819;SDS011;2936;47.348;9.640;2022-07-25T00:26:44;16.33;;;14.83;;
5819;SDS011;2936;47.348;9.640;2022-07-25T00:29:11;16.47;;;14.20;;
5819;SDS011;2936;47.348;9.640;2022-07-25T00:31:38;16.90;;;15.17;;
5819;SDS011;2936;47.348;9.640;2022-07-25T00:34:06;17.60;;;14.63;;
5819;SDS011;2936;47.348;9.640;2022-07-25T00:36:33;15.67;;;13.97;;
5819;SDS011;2936;47.348;9.640;2022-07-25T00:39:02;16.00;;;14.33;;
5819;SDS011;2936;47.348;9.640;2022-07-25T00:41:30;17.37;;;14.30;;
5819;SDS011;2936;47.348;9.640;2022-07-25T00:43:57;19.23;;;14.70;;
5819;SDS011;2936;47.348;9.640;2022-07-25T00:46:24;16.97;;;14.83;;
5819;SDS011;2936;47.348;9.640;2022-07-25T00:48:52;16.30;;;13.40;;
5819;SDS011;2936;47.348;9.640;2022-07-25T00:51:19;17.00;;;15.30;;
5819;SDS011;2936;47.348;9.640;2022-07-25T00:53:47;15.83;;;14.33;;
5819;SDS011;2936;47.348;9.640;2022-07-25T00:56:15;20.60;;;14.83;;
5819;SDS011;2936;47.348;9.640;2022-07-25T00:58:43;15.23;;;13.70;;
5819;SDS011;2936;47.348;9.640;2022-07-25T01:01:10;20.20;;;14.73;;
5819;SDS011;2936;47.348;9.640;2022-07-25T01:03:38;15.60;;;14.03;;
5819;SDS011;2936;47.348;9.640;2022-07-25T01:06:05;20.10;;;14.93;;
5819;SDS011;2936;47.348;9.640;2022-07-25T01:08:33;17.03;;;15.20;;
5819;SDS011;2936;47.348;9.640;2022-07-25T01:11:01;15.93;;;14.33;;
5819;SDS011;2936;47.348;9.640;2022-07-25T01:13:32;15.63;;;14.13;;
5819;SDS011;2936;47.348;9.640;2022-07-25T01:15:59;16.67;;;13.97;;
5819;SDS011;2936;47.348;9.640;2022-07-25T01:18:27;17.17;;;14.00;;
5819;SDS011;2936;47.348;9.640;2022-07-25T01:20:56;15.00;;;13.40;;
5819;SDS011;2936;47.348;9.640;2022-07-25T01:23:23;19.63;;;15.23;;
5819;SDS011;2936;47.348;9.640;2022-07-25T01:25:50;15.57;;;13.97;;
5819;SDS011;2936;47.348;9.640;2022-07-25T01:28:18;18.43;;;14.20;;
5819;SDS011;2936;47.348;9.640;2022-07-25T01:30:45;14.67;;;13.13;;
5819;SDS011;2936;47.348;9.640;2022-07-25T01:33:13;16.77;;;14.30;;
5819;SDS011;2936;47.348;9.640;2022-07-25T01:35:41;18.83;;;14.73;;
5819;SDS011;2936;47.348;9.640;2022-07-25T01:38:10;17.37;;;15.07;;
5819;SDS011;2936;47.348;9.640;2022-07-25T01:40:38;17.93;;;14.63;;
5819;SDS011;2936;47.348;9.640;2022-07-25T01:43:06;16.90;;;14.40;;
5819;SDS011;2936;47.348;9.640;2022-07-25T01:45:33;15.60;;;14.10;;
5819;SDS011;2936;47.348;9.640;2022-07-25T01:48:01;15.90;;;14.00;;
5819;SDS011;2936;47.348;9.640;2022-07-25T01:50:28;16.90;;;15.10;;
5819;SDS011;2936;47.348;9.640;2022-07-25T01:52:56;26.40;;;14.43;;
5819;SDS011;2936;47.348;9.640;2022-07-25T01:55:24;19.80;;;14.87;;
5819;SDS011;2936;47.348;9.640;2022-07-25T01:57:52;16.60;;;15.00;;
5819;SDS011;2936;47.348;9.640;2022-07-25T02:00:19;15.43;;;13.93;;
5819;SDS011;2936;47.348;9.640;2022-07-25T02:02:47;21.23;;;15.27;;
5819;SDS011;2936;47.348;9.640;2022-07-25T02:05:34;16.57;;;14.77;;
5819;SDS011;2936;47.348;9.640;2022-07-25T02:08:02;16.50;;;14.87;;
5819;SDS011;2936;47.348;9.640;2022-07-25T02:10:31;16.10;;;14.37;;
5819;SDS011;2936;47.348;9.640;2022-07-25T02:12:59;17.23;;;14.67;;
5819;SDS011;2936;47.348;9.640;2022-07-25T02:15:26;15.70;;;14.00;;
5819;SDS011;2936;47.348;9.640;2022-07-25T02:17:54;16.63;;;14.10;;
5819;SDS011;2936;47.348;9.640;2022-07-25T02:20:21;17.50;;;15.07;;
5819;SDS011;2936;47.348;9.640;2022-07-25T02:22:48;16.07;;;14.47;;
5819;SDS011;2936;47.348;9.640;2022-07-25T02:25:16;14.97;;;13.57;;
5819;SDS011;2936;47.348;9.640;2022-07-25T02:27:45;16.23;;;14.57;;
5819;SDS011;2936;47.348;9.640;2022-07-25T02:30:12;17.20;;;14.50;;
5819;SDS011;2936;47.348;9.640;2022-07-25T02:32:40;16.40;;;14.33;;
5819;SDS011;2936;47.348;9.640;2022-07-25T02:35:08;15.67;;;14.17;;
5819;SDS011;2936;47.348;9.640;2022-07-25T02:37:35;16.90;;;14.23;;
5819;SDS011;2936;47.348;9.640;2022-07-25T02:40:03;16.73;;;15.00;;
5819;SDS011;2936;47.348;9.640;2022-07-25T02:42:31;20.90;;;16.10;;
5819;SDS011;2936;47.348;9.640;2022-07-25T02:44:59;18.60;;;15.10;;
5819;SDS011;2936;47.348;9.640;2022-07-25T02:47:27;18.37;;;14.77;;
5819;SDS011;2936;47.348;9.640;2022-07-25T02:49:54;16.40;;;14.50;;
5819;SDS011;2936;47.348;9.640;2022-07-25T02:52:22;18.37;;;15.80;;
5819;SDS011;2936;47.348;9.640;2022-07-25T02:54:49;16.17;;;14.53;;
5819;SDS011;2936;47.348;9.640;2022-07-25T02:57:16;16.97;;;14.97;;
5819;SDS011;2936;47.348;9.640;2022-07-25T02:59:44;16.63;;;14.70;;
5819;SDS011;2936;47.348;9.640;2022-07-25T03:02:13;17.60;;;15.20;;
5819;SDS011;2936;47.348;9.640;2022-07-25T03:04:40;18.50;;;15.40;;
5819;SDS011;2936;47.348;9.640;2022-07-25T03:07:08;16.77;;;14.97;;
5819;SDS011;2936;47.348;9.640;2022-07-25T03:09:35;17.93;;;15.87;;
5819;SDS011;2936;47.348;9.640;2022-07-25T03:12:02;16.47;;;14.87;;
5819;SDS011;2936;47.348;9.640;2022-07-25T03:14:30;15.67;;;14.07;;
5819;SDS011;2936;47.348;9.640;2022-07-25T03:16:57;17.33;;;14.90;;
5819;SDS011;2936;47.348;9.640;2022-07-25T03:19:27;18.33;;;13.50;;
5819;SDS011;2936;47.348;9.640;2022-07-25T03:21:54;15.27;;;13.77;;
5819;SDS011;2936;47.348;9.640;2022-07-25T03:24:21;18.10;;;13.20;;
5819;SDS011;2936;47.348;9.640;2022-07-25T03:26:49;17.07;;;14.30;;
5819;SDS011;2936;47.348;9.640;2022-07-25T03:29:16;17.80;;;14.00;;
5819;SDS011;2936;47.348;9.640;2022-07-25T03:31:44;15.93;;;14.33;;
5819;SDS011;2936;47.348;9.640;2022-07-25T03:34:11;16.13;;;14.50;;
5819;SDS011;2936;47.348;9.640;2022-07-25T03:36:40;20.33;;;13.53;;
5819;SDS011;2936;47.348;9.640;2022-07-25T03:39:07;14.60;;;13.10;;
5819;SDS011;2936;47.348;9.640;2022-07-25T03:41:34;15.93;;;14.33;;
5819;SDS011;2936;47.348;9.640;2022-07-25T03:44:02;23.70;;;14.33;;
5819;SDS011;2936;47.348;9.640;2022-07-25T03:46:29;14.83;;;13.27;;
5819;SDS011;2936;47.348;9.640;2022-07-25T03:48:57;17.17;;;14.03;;
5819;SDS011;2936;47.348;9.640;2022-07-25T03:51:24;15.77;;;14.10;;
5819;SDS011;2936;47.348;9.640;2022-07-25T03:53:53;23.40;;;14.00;;
5819;SDS011;2936;47.348;9.640;2022-07-25T03:56:31;14.87;;;13.37;;
5819;SDS011;2936;47.348;9.640;2022-07-25T03:58:59;16.50;;;14.33;;
5819;SDS011;2936;47.348;9.640;2022-07-25T04:01:26;19.97;;;13.90;;
5819;SDS011;2936;47.348;9.640;2022-07-25T04:03:53;15.53;;;13.90;;
5819;SDS011;2936;47.348;9.640;2022-07-25T04:06:21;17.30;;;12.97;;
5819;SDS011;2936;47.348;9.640;2022-07-25T04:08:48;19.97;;;14.20;;
5819;SDS011;2936;47.348;9.640;2022-07-25T04:11:18;17.37;;;13.40;;
5819;SDS011;2936;47.348;9.640;2022-07-25T04:13:45;15.70;;;13.90;;
5819;SDS011;2936;47.348;9.640;2022-07-25T04:16:13;15.23;;;13.60;;
5819;SDS011;2936;47.348;9.640;2022-07-25T04:18:40;20.30;;;14.60;;
5819;SDS011;2936;47.348;9.640;2022-07-25T04:21:08;15.90;;;14.23;;
5819;SDS011;2936;47.348;9.640;2022-07-25T04:23:35;19.50;;;14.97;;
5819;SDS011;2936;47.348;9.640;2022-07-25T04:26:03;15.40;;;13.67;;
5819;SDS011;2936;47.348;9.640;2022-07-25T04:28:32;17.93;;;13.53;;
5819;SDS011;2936;47.348;9.640;2022-07-25T04:30:59;16.57;;;13.93;;
5819;SDS011;2936;47.348;9.640;2022-07-25T04:33:26;15.77;;;13.77;;
5819;SDS011;2936;47.348;9.640;2022-07-25T04:35:54;15.07;;;13.53;;
5819;SDS011;2936;47.348;9.640;2022-07-25T04:38:21;15.43;;;13.90;;
5819;SDS011;2936;47.348;9.640;2022-07-25T04:40:49;18.20;;;13.20;;
5819;SDS011;2936;47.348;9.640;2022-07-25T04:43:16;14.77;;;13.07;;
5819;SDS011;2936;47.348;9.640;2022-07-25T04:45:45;16.00;;;14.10;;
5819;SDS011;2936;47.348;9.640;2022-07-25T04:48:12;15.00;;;13.60;;
5819;SDS011;2936;47.348;9.640;2022-07-25T04:50:40;16.80;;;13.30;;
5819;SDS011;2936;47.348;9.640;2022-07-25T04:53:07;15.70;;;14.00;;
5819;SDS011;2936;47.348;9.640;2022-07-25T04:55:34;14.53;;;13.13;;
5819;SDS011;2936;47.348;9.640;2022-07-25T04:58:03;16.00;;;13.40;;
5819;SDS011;2936;47.348;9.640;2022-07-25T05:00:30;17.30;;;14.10;;
5819;SDS011;2936;47.348;9.640;2022-07-25T05:02:59;15.73;;;14.13;;
5819;SDS011;2936;47.348;9.640;2022-07-25T05:05:26;19.40;;;14.67;;
5819;SDS011;2936;47.348;9.640;2022-07-25T05:07:54;14.60;;;13.20;;
5819;SDS011;2936;47.348;9.640;2022-07-25T05:10:22;20.57;;;14.40;;
5819;SDS011;2936;47.348;9.640;2022-07-25T05:12:49;15.17;;;13.57;;
5819;SDS011;2936;47.348;9.640;2022-07-25T05:15:16;19.67;;;14.13;;
5819;SDS011;2936;47.348;9.640;2022-07-25T05:17:44;17.70;;;13.90;;
5819;SDS011;2936;47.348;9.640;2022-07-25T05:20:13;18.53;;;13.83;;
5819;SDS011;2936;47.348;9.640;2022-07-25T05:22:41;16.43;;;14.20;;
5819;SDS011;2936;47.348;9.640;2022-07-25T05:25:09;15.93;;;14.30;;
5819;SDS011;2936;47.348;9.640;2022-07-25T05:27:38;15.03;;;13.47;;
5819;SDS011;2936;47.348;9.640;2022-07-25T05:30:13;15.07;;;13.60;;
5819;SDS011;2936;47.348;9.640;2022-07-25T05:32:40;18.83;;;13.50;;
5819;SDS011;2936;47.348;9.640;2022-07-25T05:35:18;14.97;;;13.37;;
5819;SDS011;2936;47.348;9.640;2022-07-25T05:37:46;15.07;;;13.00;;
5819;SDS011;2936;47.348;9.640;2022-07-25T05:40:13;13.97;;;12.50;;
5819;SDS011;2936;47.348;9.640;2022-07-25T05:42:42;21.43;;;13.50;;
5819;SDS011;2936;47.348;9.640;2022-07-25T05:45:10;15.77;;;14.07;;
5819;SDS011;2936;47.348;9.640;2022-07-25T05:47:38;16.07;;;13.97;;
5819;SDS011;2936;47.348;9.640;2022-07-25T05:50:05;14.83;;;12.73;;
5819;SDS011;2936;47.348;9.640;2022-07-25T05:52:34;19.67;;;13.20;;
5819;SDS011;2936;47.348;9.640;2022-07-25T05:55:02;14.07;;;12.67;;
5819;SDS011;2936;47.348;9.640;2022-07-25T05:57:29;21.33;;;13.70;;
5819;SDS011;2936;47.348;9.640;2022-07-25T05:59:57;21.93;;;13.80;;
5819;SDS011;2936;47.348;9.640;2022-07-25T06:02:24;17.47;;;13.77;;
5819;SDS011;2936;47.348;9.640;2022-07-25T06:04:53;20.03;;;13.67;;
5819;SDS011;2936;47.348;9.640;2022-07-25T06:07:37;15.97;;;14.27;;
5819;SDS011;2936;47.348;9.640;2022-07-25T06:10:05;15.33;;;13.73;;
5819;SDS011;2936;47.348;9.640;2022-07-25T06:12:33;15.07;;;13.57;;
5819;SDS011;2936;47.348;9.640;2022-07-25T06:15:00;15.40;;;13.80;;
5819;SDS011;2936;47.348;9.640;2022-07-25T06:17:28;16.03;;;14.20;;
5819;SDS011;2936;47.348;9.640;2022-07-25T06:19:55;15.23;;;13.70;;
5819;SDS011;2936;47.348;9.640;2022-07-25T06:22:22;17.00;;;14.73;;
5819;SDS011;2936;47.348;9.640;2022-07-25T06:24:51;16.10;;;13.77;;
5819;SDS011;2936;47.348;9.640;2022-07-25T06:27:22;15.90;;;14.13;;
5819;SDS011;2936;47.348;9.640;2022-07-25T06:29:50;15.90;;;14.20;;
5819;SDS011;2936;47.348;9.640;2022-07-25T06:32:17;20.53;;;13.90;;
5819;SDS011;2936;47.348;9.640;2022-07-25T06:34:45;17.00;;;14.20;;
5819;SDS011;2936;47.348;9.640;2022-07-25T06:37:13;15.37;;;13.87;;
5819;SDS011;2936;47.348;9.640;2022-07-25T06:39:41;14.57;;;13.17;;
5819;SDS011;2936;47.348;9.640;2022-07-25T06:42:10;20.10;;;13.40;;
5819;SDS011;2936;47.348;9.640;2022-07-25T06:44:37;19.37;;;14.00;;
5819;SDS011;2936;47.348;9.640;2022-07-25T06:47:05;21.63;;;13.97;;
5819;SDS011;2936;47.348;9.640;2022-07-25T06:49:36;22.60;;;13.70;;
5819;SDS011;2936;47.348;9.640;2022-07-25T06:52:04;17.67;;;14.23;;
5819;SDS011;2936;47.348;9.640;2022-07-25T06:54:32;18.20;;;14.13;;
5819;SDS011;2936;47.348;9.640;2022-07-25T06:56:59;21.33;;;13.60;;
5819;SDS011;2936;47.348;9.640;2022-07-25T06:59:28;14.33;;;12.83;;
5819;SDS011;2936;47.348;9.640;2022-07-25T07:01:57;14.83;;;11.90;;
5819;SDS011;2936;47.348;9.640;2022-07-25T07:04:25;18.50;;;14.00;;
5819;SDS011;2936;47.348;9.640;2022-07-25T07:06:52;17.60;;;12.90;;
5819;SDS011;2936;47.348;9.640;2022-07-25T07:09:21;21.23;;;14.37;;
5819;SDS011;2936;47.348;9.640;2022-07-25T07:11:51;17.53;;;14.90;;
5819;SDS011;2936;47.348;9.640;2022-07-25T07:14:19;16.70;;;13.70;;
5819;SDS011;2936;47.348;9.640;2022-07-25T07:16:48;16.53;;;14.33;;
5819;SDS011;2936;47.348;9.640;2022-07-25T07:19:15;14.70;;;13.20;;
5819;SDS011;2936;47.348;9.640;2022-07-25T07:21:42;21.97;;;14.97;;
5819;SDS011;2936;47.348;9.640;2022-07-25T07:24:10;22.20;;;14.10;;
5819;SDS011;2936;47.348;9.640;2022-07-25T07:26:37;16.33;;;14.40;;
5819;SDS011;2936;47.348;9.640;2022-07-25T07:29:04;16.50;;;13.37;;
5819;SDS011;2936;47.348;9.640;2022-07-25T07:31:32;15.17;;;13.57;;
5819;SDS011;2936;47.348;9.640;2022-07-25T07:34:06;14.37;;;12.60;;
5819;SDS011;2936;47.348;9.640;2022-07-25T07:36:35;16.00;;;12.80;;
5819;SDS011;2936;47.348;9.640;2022-07-25T07:39:18;14.37;;;12.90;;
5819;SDS011;2936;47.348;9.640;2022-07-25T07:41:46;19.63;;;14.03;;
5819;SDS011;2936;47.348;9.640;2022-07-25T07:44:13;15.37;;;13.80;;
5819;SDS011;2936;47.348;9.640;2022-07-25T07:46:41;14.43;;;13.00;;
5819;SDS011;2936;47.348;9.640;2022-07-25T07:49:10;15.30;;;13.80;;
5819;SDS011;2936;47.348;9.640;2022-07-25T07:51:37;18.23;;;14.20;;
5819;SDS011;2936;47.348;9.640;2022-07-25T07:54:04;15.60;;;13.70;;
5819;SDS011;2936;47.348;9.640;2022-07-25T07:56:49;20.00;;;14.10;;
5819;SDS011;2936;47.348;9.640;2022-07-25T07:59:17;18.10;;;14.50;;
5819;SDS011;2936;47.348;9.640;2022-07-25T08:01:47;14.50;;;13.10;;
5819;SDS011;2936;47.348;9.640;2022-07-25T08:04:26;14.87;;;13.40;;
5819;SDS011;2936;47.348;9.640;2022-07-25T08:06:53;15.40;;;13.80;;
5819;SDS011;2936;47.348;9.640;2022-07-25T08:09:20;14.17;;;12.77;;
5819;SDS011;2936;47.348;9.640;2022-07-25T08:11:49;15.37;;;13.87;;
5819;SDS011;2936;47.348;9.640;2022-07-25T08:14:17;16.10;;;14.30;;
5819;SDS011;2936;47.348;9.640;2022-07-25T08:16:44;16.40;;;14.73;;
5819;SDS011;2936;47.348;9.640;2022-07-25T08:19:12;14.60;;;13.20;;
5819;SDS011;2936;47.348;9.640;2022-07-25T08:21:40;17.20;;;13.77;;
5819;SDS011;2936;47.348;9.640;2022-07-25T08:24:08;20.87;;;13.83;;
5819;SDS011;2936;47.348;9.640;2022-07-25T08:26:35;14.53;;;12.90;;
5819;SDS011;2936;47.348;9.640;2022-07-25T08:29:02;13.93;;;12.63;;
5819;SDS011;2936;47.348;9.640;2022-07-25T08:31:30;13.80;;;12.50;;
5819;SDS011;2936;47.348;9.640;2022-07-25T08:33:57;16.37;;;13.27;;
5819;SDS011;2936;47.348;9.640;2022-07-25T08:36:25;14.53;;;13.10;;
5819;SDS011;2936;47.348;9.640;2022-07-25T08:38:53;14.90;;;13.50;;
5819;SDS011;2936;47.348;9.640;2022-07-25T08:41:21;16.63;;;13.30;;
5819;SDS011;2936;47.348;9.640;2022-07-25T08:43:49;14.47;;;12.97;;
5819;SDS011;2936;47.348;9.640;2022-07-25T08:46:17;14.60;;;13.17;;
5819;SDS011;2936;47.348;9.640;2022-07-25T08:48:44;14.43;;;12.43;;
5819;SDS011;2936;47.348;9.640;2022-07-25T08:51:12;21.40;;;12.70;;
5819;SDS011;2936;47.348;9.640;2022-07-25T08:53:40;20.00;;;13.20;;
5819;SDS011;2936;47.348;9.640;2022-07-25T08:56:10;14.77;;;13.33;;
5819;SDS011;2936;47.348;9.640;2022-07-25T08:58:38;16.37;;;13.20;;
5819;SDS011;2936;47.348;9.640;2022-07-25T09:01:05;13.77;;;12.40;;
5819;SDS011;2936;47.348;9.640;2022-07-25T09:03:33;16.43;;;12.10;;
5819;SDS011;2936;47.348;9.640;2022-07-25T09:06:00;15.23;;;12.90;;
5819;SDS011;2936;47.348;9.640;2022-07-25T09:08:28;14.30;;;12.83;;
5819;SDS011;2936;47.348;9.640;2022-07-25T09:10:55;13.37;;;12.10;;
5819;SDS011;2936;47.348;9.640;2022-07-25T09:13:24;20.87;;;13.60;;
5819;SDS011;2936;47.348;9.640;2022-07-25T09:15:53;13.87;;;12.40;;
5819;SDS011;2936;47.348;9.640;2022-07-25T09:18:24;13.63;;;12.40;;
5819;SDS011;2936;47.348;9.640;2022-07-25T09:20:55;13.43;;;12.27;;
5819;SDS011;2936;47.348;9.640;2022-07-25T09:23:27;17.33;;;13.00;;
5819;SDS011;2936;47.348;9.640;2022-07-25T09:26:00;12.30;;;11.20;;
5819;SDS011;2936;47.348;9.640;2022-07-25T09:28:29;14.23;;;12.00;;
5819;SDS011;2936;47.348;9.640;2022-07-25T09:30:56;13.47;;;11.90;;
5819;SDS011;2936;47.348;9.640;2022-07-25T09:33:24;13.90;;;12.50;;
5819;SDS011;2936;47.348;9.640;2022-07-25T09:35:52;14.00;;;12.60;;
5819;SDS011;2936;47.348;9.640;2022-07-25T09:38:20;13.20;;;11.87;;
5819;SDS011;2936;47.348;9.640;2022-07-25T09:40:52;14.57;;;13.07;;
5819;SDS011;2936;47.348;9.640;2022-07-25T09:43:20;13.93;;;12.30;;
5819;SDS011;2936;47.348;9.640;2022-07-25T09:45:49;13.47;;;12.10;;
5819;SDS011;2936;47.348;9.640;2022-07-25T09:48:17;12.30;;;11.30;;
5819;SDS011;2936;47.348;9.640;2022-07-25T09:50:45;13.40;;;12.13;;
5819;SDS011;2936;47.348;9.640;2022-07-25T09:53:13;14.73;;;13.33;;
5819;SDS011;2936;47.348;9.640;2022-07-25T09:55:40;15.70;;;13.23;;
5819;SDS011;2936;47.348;9.640;2022-07-25T09:58:07;17.60;;;13.30;;
5819;SDS011;2936;47.348;9.640;2022-07-25T10:00:35;13.97;;;12.40;;
5819;SDS011;2936;47.348;9.640;2022-07-25T10:03:17;14.27;;;12.77;;
5819;SDS011;2936;47.348;9.640;2022-07-25T10:05:49;16.10;;;13.33;;
5819;SDS011;2936;47.348;9.640;2022-07-25T10:08:19;22.03;;;14.07;;
5819;SDS011;2936;47.348;9.640;2022-07-25T10:10:47;14.27;;;12.73;;
5819;SDS011;2936;47.348;9.640;2022-07-25T10:13:15;17.20;;;14.00;;
5819;SDS011;2936;47.348;9.640;2022-07-25T10:15:45;15.87;;;13.53;;
5819;SDS011;2936;47.348;9.640;2022-07-25T10:18:13;14.60;;;13.30;;
5819;SDS011;2936;47.348;9.640;2022-07-25T10:20:42;13.80;;;12.40;;
5819;SDS011;2936;47.348;9.640;2022-07-25T10:23:17;18.57;;;13.30;;
5819;SDS011;2936;47.348;9.640;2022-07-25T10:25:44;19.20;;;12.90;;
5819;SDS011;2936;47.348;9.640;2022-07-25T10:28:17;16.03;;;12.80;;
5819;SDS011;2936;47.348;9.640;2022-07-25T10:30:45;13.40;;;12.20;;
5819;SDS011;2936;47.348;9.640;2022-07-25T10:33:14;16.07;;;13.70;;
5819;SDS011;2936;47.348;9.640;2022-07-25T10:35:43;15.63;;;12.37;;
5819;SDS011;2936;47.348;9.640;2022-07-25T10:38:10;13.50;;;12.30;;
5819;SDS011;2936;47.348;9.640;2022-07-25T10:40:38;16.57;;;12.87;;
5819;SDS011;2936;47.348;9.640;2022-07-25T10:43:08;13.73;;;12.23;;
5819;SDS011;2936;47.348;9.640;2022-07-25T10:45:41;13.10;;;11.80;;
5819;SDS011;2936;47.348;9.640;2022-07-25T10:48:10;14.53;;;11.87;;
5819;SDS011;2936;47.348;9.640;2022-07-25T10:50:49;12.30;;;10.80;;
5819;SDS011;2936;47.348;9.640;2022-07-25T10:53:27;10.30;;;9.40;;
5819;SDS011;2936;47.348;9.640;2022-07-25T10:55:57;10.70;;;9.63;;
5819;SDS011;2936;47.348;9.640;2022-07-25T10:58:25;12.60;;;9.90;;
5819;SDS011;2936;47.348;9.640;2022-07-25T11:00:52;11.57;;;10.53;;
5819;SDS011;2936;47.348;9.640;2022-07-25T11:03:19;11.83;;;10.63;;
5819;SDS011;2936;47.348;9.640;2022-07-25T11:05:48;12.03;;;10.80;;
5819;SDS011;2936;47.348;9.640;2022-07-25T11:08:28;13.53;;;11.90;;
5819;SDS011;2936;47.348;9.640;2022-07-25T11:10:56;18.90;;;11.30;;
5819;SDS011;2936;47.348;9.640;2022-07-25T11:13:23;11.40;;;10.30;;
5819;SDS011;2936;47.348;9.640;2022-07-25T11:15:54;12.00;;;10.93;;
5819;SDS011;2936;47.348;9.640;2022-07-25T11:18:29;12.00;;;10.80;;
5819;SDS011;2936;47.348;9.640;2022-07-25T11:20:59;13.33;;;11.10;;
5819;SDS011;2936;47.348;9.640;2022-07-25T11:23:29;15.13;;;10.77;;
5819;SDS011;2936;47.348;9.640;2022-07-25T11:26:03;12.13;;;10.93;;
5819;SDS011;2936;47.348;9.640;2022-07-25T11:28:41;12.93;;;11.60;;
5819;SDS011;2936;47.348;9.640;2022-07-25T11:31:17;13.07;;;11.77;;
5819;SDS011;2936;47.348;9.640;2022-07-25T11:33:57;19.03;;;10.43;;
5819;SDS011;2936;47.348;9.640;2022-07-25T11:36:26;12.00;;;10.80;;
5819;SDS011;2936;47.348;9.640;2022-07-25T11:38:53;19.83;;;10.97;;
5819;SDS011;2936;47.348;9.640;2022-07-25T11:41:27;12.30;;;11.20;;
5819;SDS011;2936;47.348;9.640;2022-07-25T11:43:56;13.80;;;12.43;;
5819;SDS011;2936;47.348;9.640;2022-07-25T11:46:23;14.50;;;11.67;;
5819;SDS011;2936;47.348;9.640;2022-07-25T11:48:51;11.80;;;10.60;;
5819;SDS011;2936;47.348;9.640;2022-07-25T11:51:34;12.87;;;11.67;;
5819;SDS011;2936;47.348;9.640;2022-07-25T11:54:07;11.67;;;10.57;;
5819;SDS011;2936;47.348;9.640;2022-07-25T11:56:38;15.53;;;11.37;;
5819;SDS011;2936;47.348;9.640;2022-07-25T11:59:05;13.33;;;12.07;;
5819;SDS011;2936;47.348;9.640;2022-07-25T12:01:34;12.50;;;11.13;;
5819;SDS011;2936;47.348;9.640;2022-07-25T12:04:09;12.53;;;10.77;;
5819;SDS011;2936;47.348;9.640;2022-07-25T12:06:38;13.73;;;12.43;;
5819;SDS011;2936;47.348;9.640;2022-07-25T12:09:13;11.20;;;10.27;;
5819;SDS011;2936;47.348;9.640;2022-07-25T12:11:41;12.03;;;10.80;;
5819;SDS011;2936;47.348;9.640;2022-07-25T12:14:08;12.13;;;11.13;;
5819;SDS011;2936;47.348;9.640;2022-07-25T12:16:36;11.80;;;10.60;;
5819;SDS011;2936;47.348;9.640;2022-07-25T12:19:07;11.90;;;10.73;;
5819;SDS011;2936;47.348;9.640;2022-07-25T12:21:41;14.10;;;12.10;;
5819;SDS011;2936;47.348;9.640;2022-07-25T12:24:12;10.43;;;9.33;;
5819;SDS011;2936;47.348;9.640;2022-07-25T12:26:40;12.27;;;11.17;;
5819;SDS011;2936;47.348;9.640;2022-07-25T12:29:07;11.83;;;10.70;;
5819;SDS011;2936;47.348;9.640;2022-07-25T12:31:34;12.03;;;10.80;;
5819;SDS011;2936;47.348;9.640;2022-07-25T12:34:02;11.67;;;10.60;;
5819;SDS011;2936;47.348;9.640;2022-07-25T12:36:29;12.77;;;11.67;;
5819;SDS011;2936;47.348;9.640;2022-07-25T12:39:00;17.50;;;10.97;;
5819;SDS011;2936;47.348;9.640;2022-07-25T12:41:29;12.13;;;10.93;;
5819;SDS011;2936;47.348;9.640;2022-07-25T12:43:56;11.60;;;10.40;;
5819;SDS011;2936;47.348;9.640;2022-07-25T12:46:25;12.50;;;10.70;;
5819;SDS011;2936;47.348;9.640;2022-07-25T12:48:52;12.03;;;10.93;;
5819;SDS011;2936;47.348;9.640;2022-07-25T12:51:20;11.00;;;10.10;;
5819;SDS011;2936;47.348;9.640;2022-07-25T12:53:47;13.27;;;11.40;;
5819;SDS011;2936;47.348;9.640;2022-07-25T12:56:16;12.57;;;11.43;;
5819;SDS011;2936;47.348;9.640;2022-07-25T12:58:44;17.00;;;11.33;;
5819;SDS011;2936;47.348;9.640;2022-07-25T13:01:14;13.27;;;11.40;;
5819;SDS011;2936;47.348;9.640;2022-07-25T13:03:42;11.87;;;10.87;;
5819;SDS011;2936;47.348;9.640;2022-07-25T13:06:09;11.33;;;10.13;;
5819;SDS011;2936;47.348;9.640;2022-07-25T13:08:36;16.73;;;11.50;;
5819;SDS011;2936;47.348;9.640;2022-07-25T13:11:04;11.30;;;10.27;;
5819;SDS011;2936;47.348;9.640;2022-07-25T13:13:33;12.80;;;10.53;;
5819;SDS011;2936;47.348;9.640;2022-07-25T13:16:00;12.90;;;10.70;;
5819;SDS011;2936;47.348;9.640;2022-07-25T13:18:32;12.53;;;10.37;;
5819;SDS011;2936;47.348;9.640;2022-07-25T13:21:10;16.60;;;10.30;;
5819;SDS011;2936;47.348;9.640;2022-07-25T13:24:40;12.80;;;10.97;;
5819;SDS011;2936;47.348;9.640;2022-07-25T13:26:44;12.70;;;10.43;;
5819;SDS011;2936;47.348;9.640;2022-07-25T13:29:13;10.57;;;9.67;;
5819;SDS011;2936;47.348;9.640;2022-07-25T13:31:40;13.13;;;10.37;;
5819;SDS011;2936;47.348;9.640;2022-07-25T13:34:08;11.33;;;9.97;;
5819;SDS011;2936;47.348;9.640;2022-07-25T13:36:37;11.17;;;10.17;;
5819;SDS011;2936;47.348;9.640;2022-07-25T13:39:05;11.73;;;10.63;;
5819;SDS011;2936;47.348;9.640;2022-07-25T13:41:32;10.10;;;9.10;;
5819;SDS011;2936;47.348;9.640;2022-07-25T13:44:01;10.47;;;9.57;;
5819;SDS011;2936;47.348;9.640;2022-07-25T13:46:30;10.47;;;9.47;;
5819;SDS011;2936;47.348;9.640;2022-07-25T13:48:58;10.13;;;9.30;;
5819;SDS011;2936;47.348;9.640;2022-07-25T13:51:25;10.43;;;9.43;;
5819;SDS011;2936;47.348;9.640;2022-07-25T13:53:53;11.37;;;10.10;;
5819;SDS011;2936;47.348;9.640;2022-07-25T13:56:20;10.50;;;9.50;;
5819;SDS011;2936;47.348;9.640;2022-07-25T13:58:47;9.70;;;8.90;;
5819;SDS011;2936;47.348;9.640;2022-07-25T14:01:15;10.17;;;9.13;;
5819;SDS011;2936;47.348;9.640;2022-07-25T14:03:44;10.33;;;8.97;;
5819;SDS011;2936;47.348;9.640;2022-07-25T14:06:11;8.37;;;7.67;;
5819;SDS011;2936;47.348;9.640;2022-07-25T14:08:38;9.00;;;7.97;;
5819;SDS011;2936;47.348;9.640;2022-07-25T14:11:06;8.70;;;8.00;;
5819;SDS011;2936;47.348;9.640;2022-07-25T14:13:34;8.40;;;7.70;;
5819;SDS011;2936;47.348;9.640;2022-07-25T14:16:03;9.00;;;8.17;;
5819;SDS011;2936;47.348;9.640;2022-07-25T14:18:31;8.37;;;7.67;;
5819;SDS011;2936;47.348;9.640;2022-07-25T14:21:00;8.17;;;7.47;;
5819;SDS011;2936;47.348;9.640;2022-07-25T14:23:27;7.73;;;7.13;;
5819;SDS011;2936;47.348;9.640;2022-07-25T14:25:56;8.60;;;6.73;;
5819;SDS011;2936;47.348;9.640;2022-07-25T14:28:28;7.77;;;7.07;;
5819;SDS011;2936;47.348;9.640;2022-07-25T14:30:56;7.90;;;7.30;;
5819;SDS011;2936;47.348;9.640;2022-07-25T14:33:24;7.43;;;6.83;;
5819;SDS011;2936;47.348;9.640;2022-07-25T14:35:51;9.00;;;8.13;;
5819;SDS011;2936;47.348;9.640;2022-07-25T14:38:20;7.13;;;6.60;;
5819;SDS011;2936;47.348;9.640;2022-07-25T14:40:50;9.43;;;8.20;;
5819;SDS011;2936;47.348;9.640;2022-07-25T14:43:18;8.67;;;7.97;;
5819;SDS011;2936;47.348;9.640;2022-07-25T14:45:45;9.70;;;8.57;;
5819;SDS011;2936;47.348;9.640;2022-07-25T14:48:13;9.80;;;9.00;;
5819;SDS011;2936;47.348;9.640;2022-07-25T14:50:40;23.93;;;9.00;;
5819;SDS011;2936;47.348;9.640;2022-07-25T14:53:08;9.97;;;8.70;;
5819;SDS011;2936;47.348;9.640;2022-07-25T14:55:38;12.17;;;8.67;;
5819;SDS011;2936;47.348;9.640;2022-07-25T14:58:05;9.60;;;8.70;;
5819;SDS011;2936;47.348;9.640;2022-07-25T15:00:33;10.30;;;9.00;;